sensor_id;sensor_type;location;lat;lon;timestamp;pressure;altitude;pressure_sealevel;temperature;humidity
60061;BME280;45933;51.336;12.612;2023-09-07T00:00:20;100539.09;;;21.95;46.01
60061;BME280;45933;51.336;12.612;2023-09-07T00:02:46;100534.78;;;21.92;46.25
60061;BME280;45933;51.336;12.612;2023-09-07T00:05:11;100528.69;;;21.90;45.88
60061;BME280;45933;51.336;12.612;2023-09-07T00:07:38;100538.66;;;21.85;46.28
60061;BME280;45933;51.336;12.612;2023-09-07T00:10:04;100538.78;;;21.82;46.19
60061;BME280;45933;51.336;12.612;2023-09-07T00:12:29;100534.47;;;21.79;46.43
60061;BME280;45933;51.336;12.612;2023-09-07T00:14:55;100542.56;;;21.76;46.69
60061;BME280;45933;51.336;12.612;2023-09-07T00:17:21;100540.97;;;21.72;46.79
60061;BME280;45933;51.336;12.612;2023-09-07T00:19:46;100533.25;;;21.67;46.66
60061;BME280;45933;51.336;12.612;2023-09-07T00:22:16;100542.09;;;21.66;46.93
60061;BME280;45933;51.336;12.612;2023-09-07T00:24:42;100543.13;;;21.64;46.90
60061;BME280;45933;51.336;12.612;2023-09-07T00:27:07;100535.16;;;21.64;46.89
60061;BME280;45933;51.336;12.612;2023-09-07T00:29:34;100538.88;;;21.60;46.97
60061;BME280;45933;51.336;12.612;2023-09-07T00:32:00;100538.09;;;21.58;47.14
60061;BME280;45933;51.336;12.612;2023-09-07T00:34:25;100540.06;;;21.53;47.19
60061;BME280;45933;51.336;12.612;2023-09-07T00:36:51;100545.38;;;21.53;47.26
60061;BME280;45933;51.336;12.612;2023-09-07T00:39:16;100541.13;;;21.49;47.40
60061;BME280;45933;51.336;12.612;2023-09-07T00:41:41;100537.63;;;21.48;47.67
60061;BME280;45933;51.336;12.612;2023-09-07T00:44:06;100536.97;;;21.43;47.42
60061;BME280;45933;51.336;12.612;2023-09-07T00:46:32;100541.41;;;21.43;47.77
60061;BME280;45933;51.336;12.612;2023-09-07T00:48:57;100540.00;;;21.34;47.88
60061;BME280;45933;51.336;12.612;2023-09-07T00:51:23;100540.06;;;21.32;48.03
60061;BME280;45933;51.336;12.612;2023-09-07T00:53:49;100535.78;;;21.28;48.05
60061;BME280;45933;51.336;12.612;2023-09-07T00:56:15;100536.06;;;21.22;48.19
60061;BME280;45933;51.336;12.612;2023-09-07T00:58:42;100538.03;;;21.17;48.24
60061;BME280;45933;51.336;12.612;2023-09-07T01:01:08;100537.44;;;21.10;48.36
60061;BME280;45933;51.336;12.612;2023-09-07T01:03:33;100535.84;;;21.06;48.42
60061;BME280;45933;51.336;12.612;2023-09-07T01:06:13;100532.25;;;21.07;47.84
60061;BME280;45933;51.336;12.612;2023-09-07T01:08:49;100528.22;;;20.99;48.27
60061;BME280;45933;51.336;12.612;2023-09-07T01:11:17;100525.94;;;20.89;48.53
60061;BME280;45933;51.336;12.612;2023-09-07T01:13:45;100529.75;;;20.82;48.66
60061;BME280;45933;51.336;12.612;2023-09-07T01:16:12;100528.22;;;20.77;48.95
60061;BME280;45933;51.336;12.612;2023-09-07T01:18:39;100524.88;;;20.72;49.49
60061;BME280;45933;51.336;12.612;2023-09-07T01:21:08;100531.72;;;20.77;48.96
60061;BME280;45933;51.336;12.612;2023-09-07T01:23:35;100531.09;;;20.71;49.48
60061;BME280;45933;51.336;12.612;2023-09-07T01:26:02;100529.56;;;20.65;49.48
60061;BME280;45933;51.336;12.612;2023-09-07T01:28:28;100529.72;;;20.62;49.49
60061;BME280;45933;51.336;12.612;2023-09-07T01:30:53;100528.09;;;20.58;49.31
60061;BME280;45933;51.336;12.612;2023-09-07T01:33:19;100532.41;;;20.60;49.77
60061;BME280;45933;51.336;12.612;2023-09-07T01:35:45;100528.22;;;20.55;50.19
60061;BME280;45933;51.336;12.612;2023-09-07T01:38:11;100530.84;;;20.55;49.82
60061;BME280;45933;51.336;12.612;2023-09-07T01:40:36;100517.63;;;20.55;49.93
60061;BME280;45933;51.336;12.612;2023-09-07T01:43:02;100527.41;;;20.53;49.87
60061;BME280;45933;51.336;12.612;2023-09-07T01:45:27;100526.59;;;20.51;50.12
60061;BME280;45933;51.336;12.612;2023-09-07T01:47:52;100526.56;;;20.52;50.29
60061;BME280;45933;51.336;12.612;2023-09-07T01:50:18;100524.84;;;20.51;50.12
60061;BME280;45933;51.336;12.612;2023-09-07T01:52:46;100519.47;;;20.53;50.46
60061;BME280;45933;51.336;12.612;2023-09-07T01:55:11;100526.59;;;20.51;50.38
60061;BME280;45933;51.336;12.612;2023-09-07T01:57:37;100525.63;;;20.53;50.38
60061;BME280;45933;51.336;12.612;2023-09-07T02:00:02;100529.13;;;20.54;50.20
60061;BME280;45933;51.336;12.612;2023-09-07T02:02:29;100522.31;;;20.48;50.36
60061;BME280;45933;51.336;12.612;2023-09-07T02:04:55;100519.72;;;20.45;50.59
60061;BME280;45933;51.336;12.612;2023-09-07T02:07:20;100521.38;;;20.49;50.11
60061;BME280;45933;51.336;12.612;2023-09-07T02:09:45;100529.31;;;20.49;50.30
60061;BME280;45933;51.336;12.612;2023-09-07T02:12:10;100522.22;;;20.50;50.10
60061;BME280;45933;51.336;12.612;2023-09-07T02:14:36;100528.53;;;20.46;50.13
60061;BME280;45933;51.336;12.612;2023-09-07T02:17:02;100529.47;;;20.45;50.30
60061;BME280;45933;51.336;12.612;2023-09-07T02:19:27;100531.25;;;20.44;50.21
60061;BME280;45933;51.336;12.612;2023-09-07T02:21:52;100532.25;;;20.42;50.27
60061;BME280;45933;51.336;12.612;2023-09-07T02:24:18;100533.19;;;20.41;50.58
60061;BME280;45933;51.336;12.612;2023-09-07T02:26:43;100522.75;;;20.36;50.44
60061;BME280;45933;51.336;12.612;2023-09-07T02:29:13;100528.16;;;20.33;50.90
60061;BME280;45933;51.336;12.612;2023-09-07T02:31:39;100529.16;;;20.30;50.69
60061;BME280;45933;51.336;12.612;2023-09-07T02:34:05;100535.47;;;20.26;50.71
60061;BME280;45933;51.336;12.612;2023-09-07T02:36:30;100532.84;;;20.26;50.57
60061;BME280;45933;51.336;12.612;2023-09-07T02:38:55;100534.72;;;20.23;50.80
60061;BME280;45933;51.336;12.612;2023-09-07T02:41:21;100534.97;;;20.17;51.02
60061;BME280;45933;51.336;12.612;2023-09-07T02:43:46;100531.63;;;20.11;51.28
60061;BME280;45933;51.336;12.612;2023-09-07T02:46:11;100537.00;;;20.10;51.04
60061;BME280;45933;51.336;12.612;2023-09-07T02:48:36;100533.69;;;20.03;51.02
60061;BME280;45933;51.336;12.612;2023-09-07T02:51:02;100545.25;;;20.01;51.13
60061;BME280;45933;51.336;12.612;2023-09-07T02:53:28;100547.22;;;19.96;51.70
60061;BME280;45933;51.336;12.612;2023-09-07T02:55:54;100543.88;;;19.91;51.58
60061;BME280;45933;51.336;12.612;2023-09-07T02:58:19;100533.34;;;19.89;51.81
60061;BME280;45933;51.336;12.612;2023-09-07T03:00:45;100538.88;;;19.83;52.06
60061;BME280;45933;51.336;12.612;2023-09-07T03:03:12;100535.41;;;19.81;52.12
60061;BME280;45933;51.336;12.612;2023-09-07T03:05:42;100541.69;;;19.78;52.22
60061;BME280;45933;51.336;12.612;2023-09-07T03:08:08;100540.94;;;19.75;52.03
60061;BME280;45933;51.336;12.612;2023-09-07T03:10:35;100534.72;;;19.76;52.44
60061;BME280;45933;51.336;12.612;2023-09-07T03:13:00;100536.56;;;19.74;52.20
60061;BME280;45933;51.336;12.612;2023-09-07T03:15:26;100537.47;;;19.73;52.03
60061;BME280;45933;51.336;12.612;2023-09-07T03:17:52;100534.94;;;19.70;52.17
60061;BME280;45933;51.336;12.612;2023-09-07T03:20:17;100536.78;;;19.68;52.45
60061;BME280;45933;51.336;12.612;2023-09-07T03:22:44;100535.16;;;19.64;52.63
60061;BME280;45933;51.336;12.612;2023-09-07T03:25:10;100537.88;;;19.62;52.35
60061;BME280;45933;51.336;12.612;2023-09-07T03:27:37;100531.88;;;19.55;52.56
60061;BME280;45933;51.336;12.612;2023-09-07T03:30:03;100531.00;;;19.56;52.36
60061;BME280;45933;51.336;12.612;2023-09-07T03:32:29;100532.81;;;19.54;52.67
60061;BME280;45933;51.336;12.612;2023-09-07T03:35:00;100538.16;;;19.53;52.70
60061;BME280;45933;51.336;12.612;2023-09-07T03:37:27;100536.59;;;19.47;52.61
60061;BME280;45933;51.336;12.612;2023-09-07T03:39:53;100541.13;;;19.44;53.02
60061;BME280;45933;51.336;12.612;2023-09-07T03:42:18;100539.34;;;19.44;52.90
60061;BME280;45933;51.336;12.612;2023-09-07T03:44:43;100547.31;;;19.43;52.67
60061;BME280;45933;51.336;12.612;2023-09-07T03:47:10;100540.41;;;19.39;52.98
60061;BME280;45933;51.336;12.612;2023-09-07T03:49:36;100546.72;;;19.34;53.14
60061;BME280;45933;51.336;12.612;2023-09-07T03:52:01;100547.69;;;19.32;53.07
60061;BME280;45933;51.336;12.612;2023-09-07T03:54:26;100541.53;;;19.31;53.13
60061;BME280;45933;51.336;12.612;2023-09-07T03:56:52;100542.56;;;19.27;53.16
60061;BME280;45933;51.336;12.612;2023-09-07T03:59:18;100544.41;;;19.25;53.05
60061;BME280;45933;51.336;12.612;2023-09-07T04:01:43;100543.53;;;19.25;53.04
60061;BME280;45933;51.336;12.612;2023-09-07T04:04:09;100545.41;;;19.21;53.09
60061;BME280;45933;51.336;12.612;2023-09-07T04:06:34;100548.13;;;19.20;53.41
60061;BME280;45933;51.336;12.612;2023-09-07T04:08:59;100543.84;;;19.16;53.03
60061;BME280;45933;51.336;12.612;2023-09-07T04:11:25;100545.72;;;19.12;52.61
60061;BME280;45933;51.336;12.612;2023-09-07T04:13:50;100545.78;;;19.11;53.02
60061;BME280;45933;51.336;12.612;2023-09-07T04:16:15;100546.72;;;19.08;53.07
60061;BME280;45933;51.336;12.612;2023-09-07T04:18:41;100546.78;;;19.06;52.79
60061;BME280;45933;51.336;12.612;2023-09-07T04:21:08;100550.50;;;19.01;52.99
60061;BME280;45933;51.336;12.612;2023-09-07T04:23:33;100547.94;;;18.98;52.82
60061;BME280;45933;51.336;12.612;2023-09-07T04:26:10;100545.28;;;18.99;52.58
60061;BME280;45933;51.336;12.612;2023-09-07T04:28:37;100546.53;;;18.88;53.39
60061;BME280;45933;51.336;12.612;2023-09-07T04:31:03;100546.69;;;18.83;53.46
60061;BME280;45933;51.336;12.612;2023-09-07T04:33:32;100546.72;;;18.81;53.56
60061;BME280;45933;51.336;12.612;2023-09-07T04:36:10;100554.63;;;18.83;53.15
60061;BME280;45933;51.336;12.612;2023-09-07T04:38:36;100545.25;;;18.73;53.41
60061;BME280;45933;51.336;12.612;2023-09-07T04:41:09;100547.84;;;18.74;53.50
60061;BME280;45933;51.336;12.612;2023-09-07T04:43:35;100561.34;;;18.64;53.77
60061;BME280;45933;51.336;12.612;2023-09-07T04:46:00;100559.56;;;18.64;53.37
60061;BME280;45933;51.336;12.612;2023-09-07T04:48:25;100556.16;;;18.61;53.93
60061;BME280;45933;51.336;12.612;2023-09-07T04:51:05;100561.25;;;18.68;53.15
60061;BME280;45933;51.336;12.612;2023-09-07T04:53:34;100559.69;;;18.60;53.92
60061;BME280;45933;51.336;12.612;2023-09-07T04:56:02;100561.69;;;18.53;54.28
60061;BME280;45933;51.336;12.612;2023-09-07T04:58:27;100566.16;;;18.51;54.21
60061;BME280;45933;51.336;12.612;2023-09-07T05:00:53;100572.44;;;18.47;54.21
60061;BME280;45933;51.336;12.612;2023-09-07T05:03:18;100568.94;;;18.45;54.51
60061;BME280;45933;51.336;12.612;2023-09-07T05:05:43;100573.38;;;18.44;54.75
60061;BME280;45933;51.336;12.612;2023-09-07T05:08:09;100576.94;;;18.43;54.73
60061;BME280;45933;51.336;12.612;2023-09-07T05:10:35;100567.16;;;18.45;54.88
60061;BME280;45933;51.336;12.612;2023-09-07T05:13:01;100574.34;;;18.42;55.04
60061;BME280;45933;51.336;12.612;2023-09-07T05:15:26;100578.75;;;18.41;55.23
60061;BME280;45933;51.336;12.612;2023-09-07T05:17:53;100576.88;;;18.45;55.23
60061;BME280;45933;51.336;12.612;2023-09-07T05:20:18;100574.22;;;18.45;55.30
60061;BME280;45933;51.336;12.612;2023-09-07T05:22:43;100583.00;;;18.47;55.09
60061;BME280;45933;51.336;12.612;2023-09-07T05:25:09;100584.63;;;18.51;55.49
60061;BME280;45933;51.336;12.612;2023-09-07T05:27:35;100586.34;;;18.52;55.71
60061;BME280;45933;51.336;12.612;2023-09-07T05:30:01;100586.22;;;18.57;55.81
60061;BME280;45933;51.336;12.612;2023-09-07T05:32:27;100582.59;;;18.59;55.69
60061;BME280;45933;51.336;12.612;2023-09-07T05:34:52;100584.25;;;18.63;55.79
60061;BME280;45933;51.336;12.612;2023-09-07T05:37:17;100588.53;;;18.67;55.79
60061;BME280;45933;51.336;12.612;2023-09-07T05:39:42;100584.88;;;18.71;56.13
60061;BME280;45933;51.336;12.612;2023-09-07T05:42:08;100585.66;;;18.75;55.89
60061;BME280;45933;51.336;12.612;2023-09-07T05:44:33;100591.66;;;18.80;56.14
60061;BME280;45933;51.336;12.612;2023-09-07T05:46:58;100594.13;;;18.86;56.03
60061;BME280;45933;51.336;12.612;2023-09-07T05:49:24;100600.19;;;18.90;55.85
60061;BME280;45933;51.336;12.612;2023-09-07T05:51:49;100599.97;;;18.96;55.83
60061;BME280;45933;51.336;12.612;2023-09-07T05:54:15;100593.69;;;19.00;55.70
60061;BME280;45933;51.336;12.612;2023-09-07T05:56:40;100592.56;;;19.07;55.84
60061;BME280;45933;51.336;12.612;2023-09-07T05:59:05;100595.91;;;19.12;55.69
60061;BME280;45933;51.336;12.612;2023-09-07T06:01:31;100599.22;;;19.19;55.44
60061;BME280;45933;51.336;12.612;2023-09-07T06:03:57;100592.88;;;19.24;55.50
60061;BME280;45933;51.336;12.612;2023-09-07T06:06:23;100603.28;;;19.29;55.33
60061;BME280;45933;51.336;12.612;2023-09-07T06:08:48;100596.91;;;19.36;55.04
60061;BME280;45933;51.336;12.612;2023-09-07T06:11:14;100596.75;;;19.41;54.98
60061;BME280;45933;51.336;12.612;2023-09-07T06:13:39;100599.19;;;19.47;55.00
60061;BME280;45933;51.336;12.612;2023-09-07T06:16:04;100598.03;;;19.54;54.80
60061;BME280;45933;51.336;12.612;2023-09-07T06:18:30;100595.22;;;19.60;54.95
60061;BME280;45933;51.336;12.612;2023-09-07T06:20:55;100600.34;;;19.65;55.03
60061;BME280;45933;51.336;12.612;2023-09-07T06:23:20;100604.63;;;19.69;54.87
60061;BME280;45933;51.336;12.612;2023-09-07T06:25:46;100607.00;;;19.76;54.63
60061;BME280;45933;51.336;12.612;2023-09-07T06:28:11;100610.34;;;19.81;54.84
60061;BME280;45933;51.336;12.612;2023-09-07T06:30:38;100603.94;;;19.89;54.79
60061;BME280;45933;51.336;12.612;2023-09-07T06:33:03;100596.63;;;19.95;54.58
60061;BME280;45933;51.336;12.612;2023-09-07T06:35:29;100605.25;;;20.00;54.73
60061;BME280;45933;51.336;12.612;2023-09-07T06:37:54;100600.53;;;20.08;54.20
60061;BME280;45933;51.336;12.612;2023-09-07T06:40:19;100606.44;;;20.17;53.79
60061;BME280;45933;51.336;12.612;2023-09-07T06:42:45;100607.91;;;20.24;53.97
60061;BME280;45933;51.336;12.612;2023-09-07T06:45:10;100601.50;;;20.31;54.47
60061;BME280;45933;51.336;12.612;2023-09-07T06:47:35;100603.91;;;20.37;53.69
60061;BME280;45933;51.336;12.612;2023-09-07T06:50:01;100609.75;;;20.45;54.08
60061;BME280;45933;51.336;12.612;2023-09-07T06:52:27;100600.72;;;20.52;53.51
60061;BME280;45933;51.336;12.612;2023-09-07T06:54:53;100604.91;;;20.58;53.58
60061;BME280;45933;51.336;12.612;2023-09-07T06:57:18;100600.28;;;20.63;53.25
60061;BME280;45933;51.336;12.612;2023-09-07T06:59:44;100595.69;;;20.68;53.02
60061;BME280;45933;51.336;12.612;2023-09-07T07:02:09;100605.84;;;20.79;52.96
60061;BME280;45933;51.336;12.612;2023-09-07T07:04:35;100601.09;;;20.87;53.18
60061;BME280;45933;51.336;12.612;2023-09-07T07:07:00;100606.28;;;20.90;52.89
60061;BME280;45933;51.336;12.612;2023-09-07T07:09:29;100612.94;;;21.00;53.32
60061;BME280;45933;51.336;12.612;2023-09-07T07:11:55;100611.75;;;21.07;53.22
60061;BME280;45933;51.336;12.612;2023-09-07T07:14:20;100611.41;;;21.17;52.62
60061;BME280;45933;51.336;12.612;2023-09-07T07:16:45;100614.59;;;21.25;52.09
60061;BME280;45933;51.336;12.612;2023-09-07T07:19:11;100610.72;;;21.33;52.97
60061;BME280;45933;51.336;12.612;2023-09-07T07:21:36;100619.25;;;21.42;52.50
60061;BME280;45933;51.336;12.612;2023-09-07T07:24:01;100617.94;;;21.52;51.94
60061;BME280;45933;51.336;12.612;2023-09-07T07:26:27;100619.38;;;21.59;51.81
60061;BME280;45933;51.336;12.612;2023-09-07T07:28:52;100616.38;;;21.66;51.18
60061;BME280;45933;51.336;12.612;2023-09-07T07:31:17;100618.66;;;21.76;51.24
60061;BME280;45933;51.336;12.612;2023-09-07T07:33:42;100616.47;;;21.85;51.47
60061;BME280;45933;51.336;12.612;2023-09-07T07:36:08;100621.44;;;21.93;50.95
60061;BME280;45933;51.336;12.612;2023-09-07T07:38:34;100621.97;;;22.01;50.88
60061;BME280;45933;51.336;12.612;2023-09-07T07:41:00;100619.81;;;22.11;51.67
60061;BME280;45933;51.336;12.612;2023-09-07T07:43:25;100627.34;;;22.20;50.96
60061;BME280;45933;51.336;12.612;2023-09-07T07:45:54;100625.13;;;22.30;51.03
60061;BME280;45933;51.336;12.612;2023-09-07T07:48:19;100623.06;;;22.36;50.73
60061;BME280;45933;51.336;12.612;2023-09-07T07:50:45;100621.84;;;22.43;50.77
60061;BME280;45933;51.336;12.612;2023-09-07T07:53:10;100626.59;;;22.56;50.80
60061;BME280;45933;51.336;12.612;2023-09-07T07:55:37;100623.50;;;22.65;50.94
60061;BME280;45933;51.336;12.612;2023-09-07T07:58:06;100622.06;;;22.77;50.20
60061;BME280;45933;51.336;12.612;2023-09-07T08:00:35;100617.16;;;22.86;50.28
60061;BME280;45933;51.336;12.612;2023-09-07T08:03:01;100621.91;;;22.99;51.27
60061;BME280;45933;51.336;12.612;2023-09-07T08:05:31;100626.72;;;23.09;51.11
60061;BME280;45933;51.336;12.612;2023-09-07T08:07:57;100618.19;;;23.20;50.33
60061;BME280;45933;51.336;12.612;2023-09-07T08:10:22;100619.34;;;23.33;50.69
60061;BME280;45933;51.336;12.612;2023-09-07T08:12:47;100612.53;;;23.45;51.19
60061;BME280;45933;51.336;12.612;2023-09-07T08:15:13;100618.97;;;23.58;50.62
60061;BME280;45933;51.336;12.612;2023-09-07T08:17:39;100617.34;;;23.73;50.23
60061;BME280;45933;51.336;12.612;2023-09-07T08:20:05;100616.63;;;23.87;49.56
60061;BME280;45933;51.336;12.612;2023-09-07T08:22:32;100618.38;;;24.04;49.87
60061;BME280;45933;51.336;12.612;2023-09-07T08:25:00;100613.09;;;24.19;50.03
60061;BME280;45933;51.336;12.612;2023-09-07T08:27:25;100609.16;;;24.44;49.56
60061;BME280;45933;51.336;12.612;2023-09-07T08:29:51;100606.16;;;24.82;50.22
60061;BME280;45933;51.336;12.612;2023-09-07T08:32:17;100603.47;;;25.29;49.52
60061;BME280;45933;51.336;12.612;2023-09-07T08:34:43;100600.28;;;25.83;47.67
60061;BME280;45933;51.336;12.612;2023-09-07T08:37:09;100604.69;;;26.41;46.85
60061;BME280;45933;51.336;12.612;2023-09-07T08:39:35;100595.22;;;27.05;45.92
60061;BME280;45933;51.336;12.612;2023-09-07T08:42:01;100595.94;;;27.61;44.66
60061;BME280;45933;51.336;12.612;2023-09-07T08:44:28;100598.88;;;28.22;43.37
60061;BME280;45933;51.336;12.612;2023-09-07T08:46:54;100596.09;;;28.73;41.62
60061;BME280;45933;51.336;12.612;2023-09-07T08:49:20;100590.41;;;29.25;41.73
60061;BME280;45933;51.336;12.612;2023-09-07T08:51:48;100586.47;;;29.77;40.05
60061;BME280;45933;51.336;12.612;2023-09-07T08:54:14;100589.47;;;30.19;39.47
60061;BME280;45933;51.336;12.612;2023-09-07T08:56:40;100591.84;;;30.67;38.88
60061;BME280;45933;51.336;12.612;2023-09-07T08:59:05;100591.78;;;31.12;38.63
60061;BME280;45933;51.336;12.612;2023-09-07T09:01:31;100602.41;;;31.45;37.00
60061;BME280;45933;51.336;12.612;2023-09-07T09:03:57;100591.56;;;31.77;36.38
60061;BME280;45933;51.336;12.612;2023-09-07T09:06:23;100599.47;;;32.21;36.08
60061;BME280;45933;51.336;12.612;2023-09-07T09:08:57;100592.94;;;32.44;34.86
60061;BME280;45933;51.336;12.612;2023-09-07T09:11:23;100594.59;;;32.76;33.22
60061;BME280;45933;51.336;12.612;2023-09-07T09:13:52;100594.38;;;33.08;33.48
60061;BME280;45933;51.336;12.612;2023-09-07T09:16:18;100593.22;;;33.40;33.34
60061;BME280;45933;51.336;12.612;2023-09-07T09:18:50;100592.09;;;33.62;32.38
60061;BME280;45933;51.336;12.612;2023-09-07T09:21:18;100583.78;;;33.92;31.89
60061;BME280;45933;51.336;12.612;2023-09-07T09:23:47;100592.16;;;34.08;30.89
60061;BME280;45933;51.336;12.612;2023-09-07T09:26:13;100588.91;;;34.32;31.14
60061;BME280;45933;51.336;12.612;2023-09-07T09:28:38;100583.75;;;34.49;30.90
60061;BME280;45933;51.336;12.612;2023-09-07T09:31:04;100584.00;;;34.73;30.58
60061;BME280;45933;51.336;12.612;2023-09-07T09:33:32;100590.00;;;34.95;29.81
60061;BME280;45933;51.336;12.612;2023-09-07T09:36:01;100583.22;;;35.08;29.62
60061;BME280;45933;51.336;12.612;2023-09-07T09:38:27;100577.34;;;35.13;28.00
60061;BME280;45933;51.336;12.612;2023-09-07T09:40:54;100581.63;;;35.42;29.47
60061;BME280;45933;51.336;12.612;2023-09-07T09:43:20;100575.34;;;35.59;28.01
60061;BME280;45933;51.336;12.612;2023-09-07T09:45:46;100570.53;;;35.71;28.16
60061;BME280;45933;51.336;12.612;2023-09-07T09:48:13;100567.28;;;35.67;27.12
60061;BME280;45933;51.336;12.612;2023-09-07T09:50:39;100567.50;;;35.74;26.79
60061;BME280;45933;51.336;12.612;2023-09-07T09:53:05;100564.03;;;35.89;27.44
60061;BME280;45933;51.336;12.612;2023-09-07T09:55:34;100560.69;;;35.96;27.81
60061;BME280;45933;51.336;12.612;2023-09-07T09:57:59;100558.22;;;36.10;27.05
60061;BME280;45933;51.336;12.612;2023-09-07T10:00:25;100559.16;;;36.27;27.36
60061;BME280;45933;51.336;12.612;2023-09-07T10:02:58;100560.03;;;36.36;26.59
60061;BME280;45933;51.336;12.612;2023-09-07T10:05:25;100545.88;;;36.50;26.65
60061;BME280;45933;51.336;12.612;2023-09-07T10:07:51;100543.88;;;36.69;26.90
60061;BME280;45933;51.336;12.612;2023-09-07T10:10:18;100555.78;;;36.84;26.98
60061;BME280;45933;51.336;12.612;2023-09-07T10:12:50;100551.25;;;36.93;26.29
60061;BME280;45933;51.336;12.612;2023-09-07T10:15:26;100554.16;;;37.07;25.65
60061;BME280;45933;51.336;12.612;2023-09-07T10:18:13;100550.41;;;37.25;26.10
60061;BME280;45933;51.336;12.612;2023-09-07T10:20:55;100552.63;;;37.29;25.97
60061;BME280;45933;51.336;12.612;2023-09-07T10:23:22;100542.94;;;37.35;25.60
60061;BME280;45933;51.336;12.612;2023-09-07T10:25:52;100547.72;;;37.41;25.88
60061;BME280;45933;51.336;12.612;2023-09-07T10:28:24;100549.56;;;37.57;25.47
60061;BME280;45933;51.336;12.612;2023-09-07T10:31:18;100550.06;;;37.60;25.35
60061;BME280;45933;51.336;12.612;2023-09-07T10:33:44;100541.72;;;37.62;24.14
60061;BME280;45933;51.336;12.612;2023-09-07T10:36:24;100538.13;;;37.69;24.69
60061;BME280;45933;51.336;12.612;2023-09-07T10:38:50;100540.00;;;37.69;24.12
60061;BME280;45933;51.336;12.612;2023-09-07T10:41:18;100532.19;;;37.82;24.29
60061;BME280;45933;51.336;12.612;2023-09-07T10:43:49;100534.03;;;37.90;24.16
60061;BME280;45933;51.336;12.612;2023-09-07T10:46:15;100527.41;;;37.92;23.38
60061;BME280;45933;51.336;12.612;2023-09-07T10:48:43;100527.38;;;38.01;23.50
60061;BME280;45933;51.336;12.612;2023-09-07T10:51:08;100519.03;;;38.02;23.78
60061;BME280;45933;51.336;12.612;2023-09-07T10:53:34;100522.56;;;38.11;23.26
60061;BME280;45933;51.336;12.612;2023-09-07T10:56:03;100520.38;;;38.06;22.63
60061;BME280;45933;51.336;12.612;2023-09-07T10:58:33;100527.47;;;38.15;23.39
60061;BME280;45933;51.336;12.612;2023-09-07T11:01:01;100519.63;;;38.20;23.14
60061;BME280;45933;51.336;12.612;2023-09-07T11:03:30;100512.97;;;38.31;22.99
60061;BME280;45933;51.336;12.612;2023-09-07T11:06:04;100503.94;;;38.31;22.61
60061;BME280;45933;51.336;12.612;2023-09-07T11:08:32;100517.56;;;38.31;22.59
60061;BME280;45933;51.336;12.612;2023-09-07T11:10:59;100514.78;;;38.39;22.24
60061;BME280;45933;51.336;12.612;2023-09-07T11:13:25;100506.63;;;38.39;21.63
60061;BME280;45933;51.336;12.612;2023-09-07T11:15:54;100510.25;;;38.31;21.74
60061;BME280;45933;51.336;12.612;2023-09-07T11:18:20;100504.47;;;38.34;21.45
60061;BME280;45933;51.336;12.612;2023-09-07T11:20:46;100501.53;;;38.36;21.68
60061;BME280;45933;51.336;12.612;2023-09-07T11:23:12;100505.47;;;38.33;21.23
60061;BME280;45933;51.336;12.612;2023-09-07T11:25:38;100506.34;;;38.26;21.71
60061;BME280;45933;51.336;12.612;2023-09-07T11:28:05;100502.03;;;38.39;21.37
60061;BME280;45933;51.336;12.612;2023-09-07T11:30:31;100512.44;;;38.28;21.70
60061;BME280;45933;51.336;12.612;2023-09-07T11:33:07;100505.31;;;38.35;21.73
60061;BME280;45933;51.336;12.612;2023-09-07T11:35:33;100502.66;;;38.50;21.54
60061;BME280;45933;51.336;12.612;2023-09-07T11:38:03;100493.47;;;38.51;21.74
60061;BME280;45933;51.336;12.612;2023-09-07T11:40:32;100495.19;;;38.43;21.02
60061;BME280;45933;51.336;12.612;2023-09-07T11:42:58;100491.16;;;38.62;22.16
60061;BME280;45933;51.336;12.612;2023-09-07T11:45:23;100497.56;;;38.69;21.96
60061;BME280;45933;51.336;12.612;2023-09-07T11:47:49;100498.41;;;38.70;21.53
60061;BME280;45933;51.336;12.612;2023-09-07T11:50:17;100495.19;;;38.75;21.19
60061;BME280;45933;51.336;12.612;2023-09-07T11:52:42;100493.34;;;38.67;20.70
60061;BME280;45933;51.336;12.612;2023-09-07T11:55:08;100487.91;;;38.90;21.24
60061;BME280;45933;51.336;12.612;2023-09-07T11:57:36;100483.78;;;38.94;21.66
60061;BME280;45933;51.336;12.612;2023-09-07T12:00:02;100485.88;;;38.92;20.37
60061;BME280;45933;51.336;12.612;2023-09-07T12:02:27;100486.63;;;39.01;20.25
60061;BME280;45933;51.336;12.612;2023-09-07T12:04:53;100482.03;;;39.01;19.75
60061;BME280;45933;51.336;12.612;2023-09-07T12:07:19;100487.59;;;38.85;18.54
60061;BME280;45933;51.336;12.612;2023-09-07T12:09:44;100473.84;;;39.01;19.50
60061;BME280;45933;51.336;12.612;2023-09-07T12:12:09;100474.09;;;38.91;18.84
60061;BME280;45933;51.336;12.612;2023-09-07T12:14:36;100475.13;;;38.90;19.98
60061;BME280;45933;51.336;12.612;2023-09-07T12:17:01;100474.59;;;38.72;18.91
60061;BME280;45933;51.336;12.612;2023-09-07T12:19:26;100461.31;;;38.69;19.37
60061;BME280;45933;51.336;12.612;2023-09-07T12:21:52;100468.22;;;38.57;19.56
60061;BME280;45933;51.336;12.612;2023-09-07T12:24:17;100470.53;;;38.68;20.46
60061;BME280;45933;51.336;12.612;2023-09-07T12:26:42;100469.41;;;38.54;19.11
60061;BME280;45933;51.336;12.612;2023-09-07T12:29:08;100457.69;;;38.54;18.84
60061;BME280;45933;51.336;12.612;2023-09-07T12:31:33;100463.56;;;38.65;18.86
60061;BME280;45933;51.336;12.612;2023-09-07T12:33:58;100461.81;;;38.72;19.62
60061;BME280;45933;51.336;12.612;2023-09-07T12:36:24;100460.44;;;38.77;20.25